Time;durP1;ratioP1;P1;durP2;ratioP2;P2;SDS_P1;SDS_P2;PMS_P1;PMS_P2;Temp;Humidity;BMP_temperature;BMP_pressure;BME280_temperature;BME280_humidity;BME280_pressure;Samples;Min_cycle;Max_cycle;Signal;HPM_P1;HPM_P2
2023/03/18 00:00:35;;;;;;;27.98;15.02;;;;;;;;;;4987769;28;20085;-61
2023/03/18 00:03:02;;;;;;;38.13;17.25;;;;;;;;;;4989179;28;20116;-54
2023/03/18 00:05:36;;;;;;;36.88;18.05;;;;;;;;;;4989274;28;20096;-53
2023/03/18 00:08:03;;;;;;;;;;;;;;;;;;4987968;28;20137;-49
2023/03/18 00:10:47;;;;;;;32.60;16.17;;;;;;;;;;4985560;28;20821;-49
2023/03/18 00:13:15;;;;;;;36.65;16.70;;;;;;;;;;4989560;28;20057;-57
2023/03/18 00:15:50;;;;;;;31.85;16.52;;;;;;;;;;4990637;28;20077;-61
2023/03/18 00:18:18;;;;;;;33.35;16.20;;;;;;;;;;4987166;28;20109;-61
2023/03/18 00:20:45;;;;;;;;;;;;;;;;;;4987373;28;20050;-61
2023/03/18 00:23:19;;;;;;;34.67;16.38;;;;;;;;;;4990253;28;20378;-61
2023/03/18 00:25:47;;;;;;;29.25;15.93;;;;;;;;;;4985996;28;20527;-61
2023/03/18 00:28:21;;;;;;;28.77;15.60;;;;;;;;;;4987254;28;20146;-61
2023/03/18 00:30:48;;;;;;;33.00;16.35;;;;;;;;;;4985442;28;20058;-54
2023/03/18 00:33:16;;;;;;;33.63;14.02;;;;;;;;;;4985599;28;20061;-47
2023/03/18 00:35:51;;;;;;;23.77;14.48;;;;;;;;;;4987338;28;20051;-55
2023/03/18 00:38:21;;;;;;;35.95;16.33;;;;;;;;;;4985496;28;20488;-55
2023/03/18 00:41:03;;;;;;;31.33;16.13;;;;;;;;;;4990169;28;20062;-62
2023/03/18 00:43:34;;;;;;;37.83;16.60;;;;;;;;;;4985272;28;20051;-55
2023/03/18 00:46:07;;;;;;;35.65;17.65;;;;;;;;;;4993089;28;20050;-51
2023/03/18 00:48:35;;;;;;;27.35;15.30;;;;;;;;;;4989277;28;20060;-54
2023/03/18 00:51:02;;;;;;;35.00;17.85;;;;;;;;;;4984629;28;20063;-48
2023/03/18 00:53:37;;;;;;;34.85;15.95;;;;;;;;;;4984180;28;20133;-52
2023/03/18 00:56:12;;;;;;;33.50;16.08;;;;;;;;;;4982516;28;21999;-51
2023/03/18 00:58:46;;;;;;;29.65;16.02;;;;;;;;;;4989849;28;20112;-52
2023/03/18 01:01:14;;;;;;;33.00;16.65;;;;;;;;;;4988016;28;20054;-58
2023/03/18 01:03:42;;;;;;;34.85;15.93;;;;;;;;;;4980587;28;20209;-59
2023/03/18 01:06:17;;;;;;;36.17;17.17;;;;;;;;;;4981915;28;20062;-55
2023/03/18 01:08:45;;;;;;;28.80;15.63;;;;;;;;;;4986865;28;20054;-53
2023/03/18 01:11:19;;;;;;;28.15;16.73;;;;;;;;;;4978320;28;20078;-60
2023/03/18 01:13:46;;;;;;;33.78;16.17;;;;;;;;;;4984992;28;20058;-52
2023/03/18 01:16:14;;;;;;;34.50;17.58;;;;;;;;;;4984539;28;20134;-55
2023/03/18 01:18:48;;;;;;;32.42;16.65;;;;;;;;;;4985624;28;20816;-58
2023/03/18 01:21:16;;;;;;;32.72;17.35;;;;;;;;;;4986982;28;20048;-55
2023/03/18 01:23:44;;;;;;;30.90;17.23;;;;;;;;;;4985691;28;20502;-56
2023/03/18 01:26:17;;;;;;;36.78;19.58;;;;;;;;;;4985360;28;20169;-58
2023/03/18 01:28:46;;;;;;;33.55;18.85;;;;;;;;;;4983011;28;20142;-52
2023/03/18 01:31:19;;;;;;;34.17;17.88;;;;;;;;;;4991324;28;20134;-58
2023/03/18 01:33:47;;;;;;;33.53;17.50;;;;;;;;;;4987399;28;21147;-52
2023/03/18 01:36:14;;;;;;;34.78;17.50;;;;;;;;;;4986605;28;20058;-56
2023/03/18 01:38:47;;;;;;;40.45;20.20;;;;;;;;;;4984585;28;20076;-57
2023/03/18 01:41:16;;;;;;;33.70;16.77;;;;;;;;;;4980209;28;20086;-59
2023/03/18 01:43:43;;;;;;;34.45;17.90;;;;;;;;;;4983375;28;20054;-54
2023/03/18 01:46:29;;;;;;;41.88;20.13;;;;;;;;;;4991410;28;20054;-55
2023/03/18 01:48:56;;;;;;;41.45;19.77;;;;;;;;;;4983684;28;20491;-58
2023/03/18 01:51:30;;;;;;;41.63;19.50;;;;;;;;;;4983651;28;20043;-57
2023/03/18 01:53:58;;;;;;;40.85;20.83;;;;;;;;;;4988330;28;20145;-58
2023/03/18 01:56:26;;;;;;;35.17;19.48;;;;;;;;;;4986096;28;20137;-57
2023/03/18 01:59:00;;;;;;;35.90;18.45;;;;;;;;;;4982590;28;20080;-55
2023/03/18 02:01:29;;;;;;;;;;;;;;;;;;4989591;28;20133;-58
2023/03/18 02:04:04;;;;;;;37.35;18.05;;;;;;;;;;4986510;28;20017;-55
2023/03/18 02:06:32;;;;;;;36.92;19.75;;;;;;;;;;4983946;28;20057;-55
2023/03/18 02:09:00;;;;;;;40.72;21.77;;;;;;;;;;4987584;28;20186;-58
2023/03/18 02:11:37;;;;;;;43.35;20.92;;;;;;;;;;4985001;28;20592;-57
2023/03/18 02:14:05;;;;;;;38.42;20.88;;;;;;;;;;4988315;28;20623;-57
2023/03/18 02:16:59;;;;;;;38.58;21.52;;;;;;;;;;4988457;28;20060;-59
2023/03/18 02:19:53;;;;;;;47.20;22.35;;;;;;;;;;4985844;28;20429;-55
2023/03/18 02:22:27;;;;;;;38.75;21.77;;;;;;;;;;4988669;28;20062;-57
2023/03/18 02:24:57;;;;;;;43.35;22.10;;;;;;;;;;4988433;28;20592;-55
2023/03/18 02:27:34;;;;;;;43.53;22.05;;;;;;;;;;4986002;28;20065;-58
2023/03/18 02:30:06;;;;;;;44.55;21.40;;;;;;;;;;4987833;28;20140;-58
2023/03/18 02:32:40;;;;;;;48.63;23.13;;;;;;;;;;4983737;28;20062;-57
2023/03/18 02:35:12;;;;;;;44.42;21.70;;;;;;;;;;4984058;28;20051;-59
2023/03/18 02:37:39;;;;;;;47.33;22.65;;;;;;;;;;4990098;28;20129;-59
2023/03/18 02:40:18;;;;;;;44.13;20.40;;;;;;;;;;4986224;28;20046;-58
2023/03/18 02:42:46;;;;;;;39.83;22.10;;;;;;;;;;4991893;28;20068;-57
2023/03/18 02:45:26;;;;;;;46.90;22.48;;;;;;;;;;4988757;28;20045;-54
2023/03/18 02:47:53;;;;;;;48.50;23.23;;;;;;;;;;4986684;28;20138;-58
2023/03/18 02:50:27;;;;;;;44.10;22.70;;;;;;;;;;4985614;28;20047;-56
2023/03/18 02:52:54;;;;;;;52.08;23.52;;;;;;;;;;4985302;28;20055;-53
2023/03/18 02:55:41;;;;;;;50.58;22.23;;;;;;;;;;4982859;28;20058;-58
2023/03/18 02:58:15;;;;;;;41.08;21.20;;;;;;;;;;4982984;28;20054;-54
2023/03/18 03:00:49;;;;;;;36.03;19.13;;;;;;;;;;4987702;28;20049;-58
2023/03/18 03:03:23;;;;;;;34.45;17.42;;;;;;;;;;4988201;28;20164;-58
2023/03/18 03:05:51;;;;;;;40.20;19.23;;;;;;;;;;4990492;28;20046;-55
2023/03/18 03:08:19;;;;;;;34.95;18.13;;;;;;;;;;4990011;28;20104;-52
2023/03/18 03:10:53;;;;;;;40.05;21.15;;;;;;;;;;4987902;28;20064;-55
2023/03/18 03:13:21;;;;;;;44.90;22.40;;;;;;;;;;4985899;28;20486;-57
2023/03/18 03:15:56;;;;;;;45.80;22.63;;;;;;;;;;4991745;28;20050;-57
2023/03/18 03:18:23;;;;;;;48.67;24.88;;;;;;;;;;4990590;28;20057;-55
2023/03/18 03:20:51;;;;;;;53.55;26.85;;;;;;;;;;4991806;28;20124;-58
2023/03/18 03:23:25;;;;;;;53.72;24.10;;;;;;;;;;4987263;28;20146;-55
2023/03/18 03:25:52;;;;;;;43.70;23.55;;;;;;;;;;4991074;28;20132;-58
2023/03/18 03:28:26;;;;;;;41.33;21.95;;;;;;;;;;4993554;28;20050;-56
2023/03/18 03:30:54;;;;;;;44.55;23.40;;;;;;;;;;4987976;28;20061;-57
2023/03/18 03:33:21;;;;;;;41.60;21.10;;;;;;;;;;4986909;28;20517;-57
2023/03/18 03:35:56;;;;;;;45.95;22.70;;;;;;;;;;4990948;28;20133;-54
2023/03/18 03:38:24;;;;;;;44.53;21.27;;;;;;;;;;4988250;28;20054;-55
2023/03/18 03:40:58;;;;;;;45.60;23.48;;;;;;;;;;4989733;28;20157;-58
2023/03/18 03:43:25;;;;;;;50.63;22.05;;;;;;;;;;4990226;28;20085;-57
2023/03/18 03:45:52;;;;;;;52.83;23.50;;;;;;;;;;4988143;28;20082;-59
2023/03/18 03:48:27;;;;;;;37.03;21.10;;;;;;;;;;4988654;28;20141;-58
2023/03/18 03:50:55;;;;;;;49.15;22.95;;;;;;;;;;4990828;28;20255;-59
2023/03/18 03:53:29;;;;;;;46.92;23.45;;;;;;;;;;4988060;28;20391;-59
2023/03/18 03:56:03;;;;;;;44.72;22.27;;;;;;;;;;4982346;28;20054;-59
2023/03/18 03:58:37;;;;;;;52.45;25.92;;;;;;;;;;4975464;28;20062;-56
2023/03/18 04:01:05;;;;;;;41.65;22.23;;;;;;;;;;4975898;28;20142;-58
2023/03/18 04:03:32;;;;;;;50.05;23.30;;;;;;;;;;4966570;28;20506;-56
2023/03/18 04:06:07;;;;;;;47.80;25.90;;;;;;;;;;4964248;28;20514;-59
2023/03/18 04:08:34;;;;;;;45.67;23.55;;;;;;;;;;4967669;28;20090;-59
2023/03/18 04:11:08;;;;;;;51.63;25.98;;;;;;;;;;4969422;28;20072;-59
2023/03/18 04:13:36;;;;;;;39.33;21.95;;;;;;;;;;4970675;28;20565;-59
2023/03/18 04:16:03;;;;;;;45.67;22.23;;;;;;;;;;4974366;28;20086;-57
2023/03/18 04:18:37;;;;;;;49.05;24.17;;;;;;;;;;4970451;28;20061;-55
2023/03/18 04:21:04;;;;;;;44.60;23.80;;;;;;;;;;4975692;28;20138;-58
2023/03/18 04:23:39;;;;;;;53.88;24.55;;;;;;;;;;4967345;28;20460;-59
2023/03/18 04:26:07;;;;;;;46.53;24.08;;;;;;;;;;4974875;28;20109;-54
2023/03/18 04:28:34;;;;;;;41.42;22.10;;;;;;;;;;4972376;28;20058;-56
2023/03/18 04:31:08;;;;;;;50.85;24.40;;;;;;;;;;4972674;28;20081;-57
2023/03/18 04:33:35;;;;;;;39.10;21.75;;;;;;;;;;4969276;28;20062;-57
2023/03/18 04:36:09;;;;;;;49.95;26.45;;;;;;;;;;4971956;28;20141;-57
2023/03/18 04:38:37;;;;;;;47.83;25.10;;;;;;;;;;4968426;28;20047;-58
2023/03/18 04:41:05;;;;;;;43.78;21.38;;;;;;;;;;4963287;28;20142;-59
2023/03/18 04:43:39;;;;;;;48.72;22.67;;;;;;;;;;4970387;28;20077;-57
2023/03/18 04:46:06;;;;;;;42.15;22.13;;;;;;;;;;4976922;28;20054;-58
2023/03/18 04:48:33;;;;;;;56.83;25.77;;;;;;;;;;4972236;28;20141;-59
2023/03/18 04:51:11;;;;;;;55.33;27.55;;;;;;;;;;4971176;28;20055;-59
2023/03/18 04:53:38;;;;;;;54.15;28.23;;;;;;;;;;4966625;28;20113;-55
2023/03/18 04:56:19;;;;;;;59.70;26.77;;;;;;;;;;4972811;28;20064;-54
2023/03/18 04:58:53;;;;;;;55.33;26.75;;;;;;;;;;4990242;28;20051;-54
2023/03/18 05:01:27;;;;;;;45.03;23.77;;;;;;;;;;4984737;28;20150;-58
2023/03/18 05:03:54;;;;;;;37.28;18.90;;;;;;;;;;4985053;28;20187;-57
2023/03/18 05:06:24;;;;;;;41.42;21.58;;;;;;;;;;4986447;28;20058;-58
2023/03/18 05:08:58;;;;;;;35.75;20.75;;;;;;;;;;4984626;28;20068;-54
2023/03/18 05:11:26;;;;;;;46.45;23.65;;;;;;;;;;4982234;28;20066;-51
2023/03/18 05:14:00;;;;;;;40.63;20.83;;;;;;;;;;4987604;28;21973;-55
2023/03/18 05:16:28;;;;;;;40.00;21.25;;;;;;;;;;4981613;28;20116;-55
2023/03/18 05:18:56;;;;;;;47.33;22.80;;;;;;;;;;4982859;28;20054;-52
2023/03/18 05:21:30;;;;;;;44.72;22.80;;;;;;;;;;4983568;28;20141;-57
2023/03/18 05:23:57;;;;;;;51.13;25.60;;;;;;;;;;4983696;28;20069;-56
2023/03/18 05:26:31;;;;;;;46.30;23.77;;;;;;;;;;4977799;28;21066;-59
2023/03/18 05:29:04;;;;;;;47.58;25.08;;;;;;;;;;4989373;28;20050;-53
2023/03/18 05:31:39;;;;;;;40.58;21.98;;;;;;;;;;4985950;28;20055;-58
2023/03/18 05:34:07;;;;;;;57.75;26.35;;;;;;;;;;4987764;28;20058;-57
2023/03/18 05:36:35;;;;;;;59.70;25.50;;;;;;;;;;4989580;28;20060;-65
2023/03/18 05:39:09;;;;;;;62.72;28.05;;;;;;;;;;4986453;28;20047;-64
2023/03/18 05:41:37;;;;;;;70.65;29.60;;;;;;;;;;4987158;28;20188;-65
2023/03/18 05:44:11;;;;;;;71.18;31.10;;;;;;;;;;4990549;28;20062;-64
2023/03/18 05:46:38;;;;;;;75.22;33.63;;;;;;;;;;4985569;28;20064;-66
2023/03/18 05:49:07;;;;;;;68.05;31.27;;;;;;;;;;4986867;28;20064;-64
2023/03/18 05:51:41;;;;;;;74.95;32.65;;;;;;;;;;4984671;28;20050;-65
2023/03/18 05:54:09;;;;;;;66.03;31.70;;;;;;;;;;4980213;28;20057;-65
2023/03/18 05:56:36;;;;;;;81.90;35.33;;;;;;;;;;4986314;28;20433;-65
2023/03/18 05:59:16;;;;;;;60.80;28.67;;;;;;;;;;4987593;28;20050;-65
2023/03/18 06:01:44;;;;;;;66.93;31.25;;;;;;;;;;4988879;28;20138;-64
2023/03/18 06:04:18;;;;;;;63.80;28.65;;;;;;;;;;4984859;28;20057;-65
2023/03/18 06:06:47;;;;;;;90.10;37.13;;;;;;;;;;4985530;28;20092;-65
2023/03/18 06:09:15;;;;;;;88.60;38.30;;;;;;;;;;4984747;28;20062;-65
2023/03/18 06:11:49;;;;;;;90.47;39.72;;;;;;;;;;4988207;28;20057;-65
2023/03/18 06:14:17;;;;;;;;;;;;;;;;;;4992594;28;20438;-65
2023/03/18 06:16:51;;;;;;;74.75;34.10;;;;;;;;;;4984897;28;19921;-65
2023/03/18 06:19:18;;;;;;;94.10;39.15;;;;;;;;;;4985627;28;20417;-65
2023/03/18 06:21:45;;;;;;;87.72;39.67;;;;;;;;;;4990856;28;20137;-65
2023/03/18 06:24:19;;;;;;;104.25;41.95;;;;;;;;;;4982954;28;20049;-62
2023/03/18 06:26:46;;;;;;;81.82;36.63;;;;;;;;;;4983533;28;20057;-62
2023/03/18 06:29:20;;;;;;;88.93;38.22;;;;;;;;;;4986789;28;20145;-62
2023/03/18 06:31:47;;;;;;;93.45;41.97;;;;;;;;;;4988905;28;20077;-62
2023/03/18 06:34:14;;;;;;;83.57;40.28;;;;;;;;;;4984631;28;20049;-62
2023/03/18 06:36:48;;;;;;;86.05;39.67;;;;;;;;;;4987976;28;20399;-62
2023/03/18 06:39:15;;;;;;;84.10;37.72;;;;;;;;;;4979943;28;20053;-55
2023/03/18 06:41:49;;;;;;;70.40;32.83;;;;;;;;;;4983544;28;20061;-60
2023/03/18 06:44:18;;;;;;;80.13;35.70;;;;;;;;;;4986247;28;20054;-53
2023/03/18 06:46:45;;;;;;;82.30;38.97;;;;;;;;;;4984356;28;20070;-57
2023/03/18 06:49:19;;;;;;;92.40;41.70;;;;;;;;;;4977756;28;20050;-57
2023/03/18 06:51:47;;;;;;;97.03;42.65;;;;;;;;;;4987483;28;20081;-53
2023/03/18 06:54:15;;;;;;;104.57;42.70;;;;;;;;;;4979151;28;20514;-59
2023/03/18 06:56:55;;;;;;;96.85;42.05;;;;;;;;;;4972074;28;20063;-61
2023/03/18 06:59:22;;;;;;;116.18;47.13;;;;;;;;;;4970154;28;20515;-62
2023/03/18 07:01:57;;;;;;;94.88;42.10;;;;;;;;;;4966255;28;20053;-62
2023/03/18 07:04:24;;;;;;;90.15;40.33;;;;;;;;;;4969678;28;20055;-62
2023/03/18 07:06:52;;;;;;;105.18;45.40;;;;;;;;;;4961769;28;20142;-62
2023/03/18 07:09:26;;;;;;;110.68;45.42;;;;;;;;;;4965863;28;20396;-62
2023/03/18 07:11:57;;;;;;;;;;;;;;;;;;4966332;28;20055;-61
2023/03/18 07:14:35;;;;;;;102.68;44.03;;;;;;;;;;4969750;28;20393;-54
2023/03/18 07:17:02;;;;;;;109.40;44.92;;;;;;;;;;4969131;28;20085;-52
2023/03/18 07:19:31;;;;;;;;;;;;;;;;;;4962099;28;20475;-54
2023/03/18 07:22:05;;;;;;;108.38;42.20;;;;;;;;;;4963902;28;19953;-57
2023/03/18 07:24:32;;;;;;;100.18;41.92;;;;;;;;;;4954718;28;20065;-53
2023/03/18 07:27:06;;;;;;;98.07;41.47;;;;;;;;;;4957595;28;20046;-56
2023/03/18 07:29:33;;;;;;;80.72;38.00;;;;;;;;;;4964135;28;20055;-64
2023/03/18 07:32:00;;;;;;;99.50;43.13;;;;;;;;;;4969582;28;20054;-55
2023/03/18 07:34:35;;;;;;;93.70;40.95;;;;;;;;;;4968819;28;20055;-55
2023/03/18 07:37:02;;;;;;;98.60;43.25;;;;;;;;;;4962933;28;20512;-55
2023/03/18 07:39:37;;;;;;;100.90;40.63;;;;;;;;;;4958871;28;20054;-53
2023/03/18 07:42:04;;;;;;;69.20;33.05;;;;;;;;;;4965772;28;20607;-52
2023/03/18 07:44:32;;;;;;;107.57;42.78;;;;;;;;;;4965819;28;20055;-57
2023/03/18 07:47:06;;;;;;;101.32;41.20;;;;;;;;;;4964201;28;20142;-64
2023/03/18 07:49:33;;;;;;;100.78;42.42;;;;;;;;;;4962255;28;20067;-64
2023/03/18 07:52:07;;;;;;;94.70;40.28;;;;;;;;;;4969090;28;20046;-64
2023/03/18 07:54:35;;;;;;;78.63;38.13;;;;;;;;;;4952854;28;20050;-64
2023/03/18 07:57:03;;;;;;;88.07;39.08;;;;;;;;;;4966133;28;20059;-63
2023/03/18 07:59:44;;;;;;;91.85;39.92;;;;;;;;;;4968728;28;20057;-64
2023/03/18 08:02:13;;;;;;;75.22;35.72;;;;;;;;;;4968990;28;20525;-49
2023/03/18 08:04:47;;;;;;;62.75;32.08;;;;;;;;;;4959181;28;20057;-51
2023/03/18 08:07:14;;;;;;;;;;;;;;;;;;4962129;28;20078;-53
2023/03/18 08:09:41;;;;;;;85.85;37.53;;;;;;;;;;4966649;28;19922;-51
2023/03/18 08:12:16;;;;;;;90.45;37.10;;;;;;;;;;4967312;28;20054;-50
2023/03/18 08:14:45;;;;;;;87.40;37.58;;;;;;;;;;4969897;28;20061;-56
2023/03/18 08:17:19;;;;;;;82.72;35.85;;;;;;;;;;4970636;28;20055;-65
2023/03/18 08:19:47;;;;;;;69.60;33.53;;;;;;;;;;4962726;28;20058;-66
2023/03/18 08:22:15;;;;;;;65.13;33.42;;;;;;;;;;4962807;28;20514;-65
2023/03/18 08:24:49;;;;;;;61.05;31.17;;;;;;;;;;4951428;28;20059;-65
2023/03/18 08:27:16;;;;;;;62.45;32.00;;;;;;;;;;4964622;28;20971;-61
2023/03/18 08:29:50;;;;;;;61.53;31.23;;;;;;;;;;4963935;28;20422;-50
2023/03/18 08:32:18;;;;;;;59.90;29.13;;;;;;;;;;4965487;28;20065;-53
2023/03/18 08:34:45;;;;;;;58.33;30.02;;;;;;;;;;4966081;28;20143;-56
2023/03/18 08:37:19;;;;;;;52.95;27.48;;;;;;;;;;4958734;28;20070;-52
2023/03/18 08:39:46;;;;;;;46.95;25.02;;;;;;;;;;4964056;28;20055;-50
2023/03/18 08:42:20;;;;;;;53.70;28.00;;;;;;;;;;4954264;28;20053;-56
2023/03/18 08:44:47;;;;;;;48.67;25.95;;;;;;;;;;4965384;28;20061;-57
2023/03/18 08:47:14;;;;;;;49.70;25.35;;;;;;;;;;4960421;28;20066;-57
2023/03/18 08:49:49;;;;;;;47.20;24.77;;;;;;;;;;4967258;28;20426;-58
2023/03/18 08:52:17;;;;;;;41.95;23.83;;;;;;;;;;4956199;28;20137;-58
2023/03/18 08:54:44;;;;;;;48.35;25.42;;;;;;;;;;4963319;28;20133;-57
2023/03/18 08:57:26;;;;;;;40.35;22.95;;;;;;;;;;4977288;28;20054;-58
2023/03/18 08:59:54;;;;;;;43.22;24.33;;;;;;;;;;4985278;28;20442;-56
2023/03/18 09:02:28;;;;;;;45.05;25.17;;;;;;;;;;4980837;28;20055;-54
2023/03/18 09:04:55;;;;;;;43.67;24.80;;;;;;;;;;4986924;28;20064;-56
2023/03/18 09:07:29;;;;;;;43.45;24.73;;;;;;;;;;4983053;28;20047;-55
2023/03/18 09:09:58;;;;;;;45.38;25.80;;;;;;;;;;4981342;28;20084;-54
2023/03/18 09:12:27;;;;;;;42.83;25.10;;;;;;;;;;4967557;28;20088;-57
2023/03/18 09:15:01;;;;;;;37.33;22.48;;;;;;;;;;4987070;28;20049;-51
2023/03/18 09:17:28;;;;;;;37.45;22.38;;;;;;;;;;4985905;28;20117;-54
2023/03/18 09:20:22;;;;;;;35.13;21.88;;;;;;;;;;4985820;28;20498;-55
2023/03/18 09:22:50;;;;;;;36.65;21.35;;;;;;;;;;4986154;28;20660;-49
2023/03/18 09:25:25;;;;;;;38.50;23.00;;;;;;;;;;4985175;28;20052;-62
2023/03/18 09:27:53;;;;;;;37.05;22.65;;;;;;;;;;4988026;28;20053;-62
2023/03/18 09:30:20;;;;;;;34.97;21.70;;;;;;;;;;4982858;28;20047;-61
2023/03/18 09:32:55;;;;;;;37.35;21.60;;;;;;;;;;4981429;28;20046;-61
2023/03/18 09:35:23;;;;;;;36.22;22.42;;;;;;;;;;4984043;28;20585;-62
2023/03/18 09:37:57;;;;;;;41.15;23.83;;;;;;;;;;4986085;28;20099;-60
2023/03/18 09:40:29;;;;;;;37.08;22.02;;;;;;;;;;4987060;28;20050;-69
2023/03/18 09:43:12;;;;;;;37.20;21.33;;;;;;;;;;4982154;28;20773;-69
2023/03/18 09:45:46;;;;;;;38.67;23.13;;;;;;;;;;4980275;28;20514;-69
2023/03/18 09:49:01;;;;;;;43.97;23.98;;;;;;;;;;4984814;28;20406;-70
2023/03/18 09:51:38;;;;;;;40.08;23.58;;;;;;;;;;4984668;28;20072;-70
2023/03/18 09:54:15;;;;;;;41.10;23.38;;;;;;;;;;4984142;28;20197;-69
2023/03/18 09:56:51;;;;;;;39.53;23.58;;;;;;;;;;4985212;28;20065;-60
2023/03/18 09:59:38;;;;;;;38.05;23.38;;;;;;;;;;4986191;28;20046;-51
2023/03/18 10:02:17;;;;;;;44.03;23.83;;;;;;;;;;4983048;28;20050;-52
2023/03/18 10:05:02;;;;;;;44.22;24.30;;;;;;;;;;4990756;28;20050;-55
2023/03/18 10:07:33;;;;;;;46.67;25.30;;;;;;;;;;4984090;28;20134;-52
2023/03/18 10:10:09;;;;;;;42.00;24.77;;;;;;;;;;4985491;28;20093;-53
2023/03/18 10:12:38;;;;;;;40.17;23.60;;;;;;;;;;4986556;28;20058;-52
2023/03/18 10:15:17;;;;;;;44.42;25.05;;;;;;;;;;4986825;28;20076;-68
2023/03/18 10:17:56;;;;;;;41.35;24.45;;;;;;;;;;4986854;28;20050;-56
2023/03/18 10:20:23;;;;;;;38.95;23.95;;;;;;;;;;4984123;28;20154;-56
2023/03/18 10:23:16;;;;;;;42.78;24.83;;;;;;;;;;4981023;28;20137;-59
2023/03/18 10:25:55;;;;;;;37.97;21.90;;;;;;;;;;4979263;28;20053;-58
2023/03/18 10:28:40;;;;;;;39.35;23.33;;;;;;;;;;4984112;28;20046;-59
2023/03/18 10:31:28;;;;;;;36.13;22.83;;;;;;;;;;4986443;28;20051;-57
2023/03/18 10:34:05;;;;;;;35.25;21.75;;;;;;;;;;4984438;28;20050;-69
2023/03/18 10:36:36;;;;;;;32.20;21.42;;;;;;;;;;4984628;28;20074;-60
2023/03/18 10:39:12;;;;;;;44.03;25.35;;;;;;;;;;4987257;28;20054;-60
2023/03/18 10:41:41;;;;;;;38.67;24.27;;;;;;;;;;4989443;28;20050;-60
2023/03/18 10:44:20;;;;;;;37.65;23.67;;;;;;;;;;4982882;28;20074;-61
2023/03/18 10:47:14;;;;;;;35.03;22.05;;;;;;;;;;4981996;28;20060;-59
2023/03/18 10:49:57;;;;;;;32.17;21.40;;;;;;;;;;4984725;28;20057;-60
2023/03/18 10:52:34;;;;;;;38.10;24.10;;;;;;;;;;4987272;28;20145;-50
2023/03/18 10:55:20;;;;;;;32.03;20.45;;;;;;;;;;4983542;28;20133;-49
2023/03/18 10:57:54;;;;;;;29.42;19.17;;;;;;;;;;4982528;28;20053;-55
2023/03/18 11:00:32;;;;;;;35.75;21.63;;;;;;;;;;4977970;28;20149;-61
2023/03/18 11:03:01;;;;;;;38.28;21.42;;;;;;;;;;4983214;28;20501;-59
2023/03/18 11:05:32;;;;;;;30.83;20.48;;;;;;;;;;4988754;28;20058;-61
2023/03/18 11:08:10;;;;;;;34.60;21.42;;;;;;;;;;4970790;28;20062;-60
2023/03/18 11:10:43;;;;;;;30.75;20.83;;;;;;;;;;4988851;28;20311;-61
2023/03/18 11:13:17;;;;;;;30.60;19.60;;;;;;;;;;4982144;28;20553;-60
2023/03/18 11:15:44;;;;;;;;;;;;;;;;;;4987210;28;20069;-61
2023/03/18 11:18:24;;;;;;;29.42;18.80;;;;;;;;;;4975743;28;19992;-61
2023/03/18 11:21:03;;;;;;;30.13;19.83;;;;;;;;;;4984841;28;20142;-60
2023/03/18 11:24:06;;;;;;;32.83;20.73;;;;;;;;;;4989592;28;20086;-61
2023/03/18 11:26:45;;;;;;;31.10;19.92;;;;;;;;;;4977024;28;20058;-62
2023/03/18 11:29:25;;;;;;;34.58;22.05;;;;;;;;;;4973434;28;20128;-62
2023/03/18 11:32:00;;;;;;;34.35;21.38;;;;;;;;;;4987306;28;20055;-62
2023/03/18 11:34:36;;;;;;;31.00;20.30;;;;;;;;;;4985609;28;20064;-62
2023/03/18 11:37:04;;;;;;;31.15;20.15;;;;;;;;;;4982942;28;20153;-62
2023/03/18 11:39:39;;;;;;;31.95;19.45;;;;;;;;;;4991180;28;20064;-62
2023/03/18 11:42:20;;;;;;;30.60;20.77;;;;;;;;;;4991883;28;20051;-62
2023/03/18 11:44:55;;;;;;;25.85;17.30;;;;;;;;;;4985281;28;20423;-62
2023/03/18 11:47:24;;;;;;;30.17;18.02;;;;;;;;;;4984450;28;20062;-61
2023/03/18 11:49:58;;;;;;;27.70;17.85;;;;;;;;;;4977916;28;20077;-60
2023/03/18 11:52:31;;;;;;;25.10;17.05;;;;;;;;;;4981549;28;20058;-60
2023/03/18 11:55:06;;;;;;;29.05;18.98;;;;;;;;;;4985317;28;20152;-61
2023/03/18 11:57:52;;;;;;;27.98;18.58;;;;;;;;;;4972521;28;20470;-68
2023/03/18 12:00:44;;;;;;;27.35;18.30;;;;;;;;;;4975342;28;20069;-61
2023/03/18 12:03:30;;;;;;;26.38;17.92;;;;;;;;;;4990388;28;20054;-60
2023/03/18 12:06:13;;;;;;;31.90;20.38;;;;;;;;;;4987814;28;20113;-61
2023/03/18 12:08:45;;;;;;;31.30;20.95;;;;;;;;;;4987234;28;20425;-60
2023/03/18 12:11:19;;;;;;;34.00;20.40;;;;;;;;;;4984628;28;20054;-60
2023/03/18 12:13:55;;;;;;;31.10;20.02;;;;;;;;;;4984535;28;20051;-61
2023/03/18 12:16:35;;;;;;;39.67;22.70;;;;;;;;;;4979803;28;20065;-56
2023/03/18 12:19:16;;;;;;;34.40;21.40;;;;;;;;;;4981665;28;20058;-63
2023/03/18 12:21:53;;;;;;;32.28;20.00;;;;;;;;;;4984141;28;20065;-63
2023/03/18 12:24:20;;;;;;;32.03;21.10;;;;;;;;;;4985853;28;20050;-63
2023/03/18 12:27:04;;;;;;;34.72;21.80;;;;;;;;;;4989872;28;20580;-62
2023/03/18 12:29:38;;;;;;;33.20;22.00;;;;;;;;;;4984524;28;20506;-63
2023/03/18 12:32:14;;;;;;;37.58;21.50;;;;;;;;;;4987337;28;20061;-63
2023/03/18 12:35:08;;;;;;;40.35;22.23;;;;;;;;;;4988220;28;20137;-61
2023/03/18 12:37:35;;;;;;;41.33;22.98;;;;;;;;;;4985637;28;20074;-60
2023/03/18 12:40:22;;;;;;;38.65;23.40;;;;;;;;;;4989726;28;20399;-60
2023/03/18 12:42:50;;;;;;;38.50;22.88;;;;;;;;;;4983352;28;20055;-61
2023/03/18 12:45:32;;;;;;;38.47;23.27;;;;;;;;;;4981745;28;20510;-58
2023/03/18 12:48:03;;;;;;;41.15;23.33;;;;;;;;;;4983821;28;20632;-60
2023/03/18 12:50:39;;;;;;;43.22;24.27;;;;;;;;;;4980398;28;20601;-59
2023/03/18 12:53:23;;;;;;;45.75;24.05;;;;;;;;;;4976696;28;20228;-67
2023/03/18 12:56:14;;;;;;;37.20;22.02;;;;;;;;;;4978079;28;20106;-68
2023/03/18 12:58:44;;;;;;;40.30;23.35;;;;;;;;;;4987159;28;20682;-67
2023/03/18 13:01:22;;;;;;;32.58;19.92;;;;;;;;;;4987300;28;20051;-68
2023/03/18 13:04:01;;;;;;;37.22;21.42;;;;;;;;;;4981271;28;20380;-54
2023/03/18 13:06:48;;;;;;;38.17;22.05;;;;;;;;;;4983150;28;20095;-68
2023/03/18 13:09:34;;;;;;;35.20;20.40;;;;;;;;;;4979265;28;20417;-68
2023/03/18 13:12:12;;;;;;;38.90;21.63;;;;;;;;;;4988391;28;20057;-68
2023/03/18 13:14:45;;;;;;;35.03;20.48;;;;;;;;;;4986945;28;20137;-67
2023/03/18 13:17:23;;;;;;;36.17;21.00;;;;;;;;;;4983677;28;20548;-68
2023/03/18 13:19:51;;;;;;;38.08;21.55;;;;;;;;;;4975694;28;20073;-68
2023/03/18 13:22:19;;;;;;;33.17;19.20;;;;;;;;;;4985939;28;20053;-67
2023/03/18 13:24:59;;;;;;;33.85;19.13;;;;;;;;;;4976006;28;20065;-63
2023/03/18 13:27:41;;;;;;;33.20;19.55;;;;;;;;;;4985515;28;20133;-63
2023/03/18 13:30:29;;;;;;;31.50;18.58;;;;;;;;;;4981242;28;20108;-63
2023/03/18 13:33:23;;;;;;;32.85;18.60;;;;;;;;;;4985600;28;20145;-62
2023/03/18 13:36:03;;;;;;;28.58;17.90;;;;;;;;;;4972408;28;20719;-63
2023/03/18 13:39:03;;;;;;;27.17;16.55;;;;;;;;;;4982242;28;20058;-63
2023/03/18 13:42:06;;;;;;;28.77;16.60;;;;;;;;;;4990607;28;20606;-58
2023/03/18 13:44:52;;;;;;;22.58;14.85;;;;;;;;;;4983600;28;20054;-59
2023/03/18 13:47:21;;;;;;;18.40;11.98;;;;;;;;;;4984564;28;20065;-59
2023/03/18 13:50:00;;;;;;;18.33;12.43;;;;;;;;;;4987337;28;20056;-59
2023/03/18 13:52:34;;;;;;;19.58;12.70;;;;;;;;;;4970189;28;20058;-61
2023/03/18 13:55:24;;;;;;;28.25;15.77;;;;;;;;;;4985920;28;20080;-61
2023/03/18 13:58:14;;;;;;;30.88;16.85;;;;;;;;;;4982971;28;20051;-62
2023/03/18 14:00:54;;;;;;;26.10;15.13;;;;;;;;;;4988488;28;20502;-55
2023/03/18 14:03:25;;;;;;;24.60;15.27;;;;;;;;;;4983911;28;20140;-53
2023/03/18 14:06:09;;;;;;;26.15;16.42;;;;;;;;;;4986965;28;20073;-54
2023/03/18 14:08:43;;;;;;;29.05;16.77;;;;;;;;;;4984771;28;20062;-55
2023/03/18 14:11:18;;;;;;;27.65;16.02;;;;;;;;;;4981298;28;20094;-54
2023/03/18 14:13:52;;;;;;;33.28;18.83;;;;;;;;;;4985439;28;20061;-51
2023/03/18 14:16:23;;;;;;;35.30;20.10;;;;;;;;;;4989037;28;20108;-62
2023/03/18 14:18:56;;;;;;;32.55;18.55;;;;;;;;;;4990237;28;20054;-62
2023/03/18 14:21:31;;;;;;;32.35;18.10;;;;;;;;;;4986948;28;20129;-62
2023/03/18 14:24:14;;;;;;;35.92;18.92;;;;;;;;;;4985104;28;20498;-62
2023/03/18 14:26:42;;;;;;;39.83;21.45;;;;;;;;;;4986384;28;20042;-60
2023/03/18 14:29:24;;;;;;;34.60;19.73;;;;;;;;;;4990382;28;20054;-60
2023/03/18 14:31:56;;;;;;;36.45;20.15;;;;;;;;;;4976453;28;20058;-60
2023/03/18 14:34:32;;;;;;;32.97;19.10;;;;;;;;;;4991093;28;20076;-59
2023/03/18 14:36:59;;;;;;;31.58;17.67;;;;;;;;;;4990879;28;20072;-61
2023/03/18 14:39:32;;;;;;;29.27;16.67;;;;;;;;;;4988187;28;20042;-58
2023/03/18 14:42:24;;;;;;;27.92;15.60;;;;;;;;;;4983110;28;20054;-61
2023/03/18 14:45:13;;;;;;;30.80;17.08;;;;;;;;;;4986165;28;20473;-58
2023/03/18 14:47:49;;;;;;;27.58;15.25;;;;;;;;;;4981858;28;20717;-57
2023/03/18 14:50:24;;;;;;;29.33;15.27;;;;;;;;;;4979287;28;20740;-59
2023/03/18 14:53:02;;;;;;;32.38;16.73;;;;;;;;;;4976274;28;20056;-54
2023/03/18 14:55:31;;;;;;;25.10;14.65;;;;;;;;;;4987063;28;20667;-58